Time;durP1;ratioP1;P1;durP2;ratioP2;P2;SDS_P1;SDS_P2;PMS_P1;PMS_P2;Temp;Humidity;BMP_temperature;BMP_pressure;BME280_temperature;BME280_humidity;BME280_pressure;Samples;Min_cycle;Max_cycle;Signal;HPM_P1;HPM_P2
2022/09/30 00:00:49;;;;;;;0.43;0.40;;;;;;;;;;5117749;28;20040;-72
2022/09/30 00:03:15;;;;;;;0.82;0.30;;;;;;;;;;5118101;28;20108;-72
2022/09/30 00:05:41;;;;;;;1.00;0.30;;;;;;;;;;5117801;28;20081;-73
2022/09/30 00:08:07;;;;;;;0.82;0.30;;;;;;;;;;5117301;28;20047;-72
2022/09/30 00:10:33;;;;;;;0.30;0.30;;;;;;;;;;5117420;28;20126;-72
2022/09/30 00:13:00;;;;;;;0.57;0.40;;;;;;;;;;5117648;28;20502;-72
2022/09/30 00:15:27;;;;;;;2.88;0.55;;;;;;;;;;5117822;28;20482;-72
2022/09/30 00:17:53;;;;;;;4.75;0.50;;;;;;;;;;5117550;27;20122;-72
2022/09/30 00:20:19;;;;;;;0.45;0.40;;;;;;;;;;5117176;28;20040;-72
2022/09/30 00:22:45;;;;;;;0.32;0.32;;;;;;;;;;5117637;28;20050;-72
2022/09/30 00:25:12;;;;;;;1.17;0.30;;;;;;;;;;5117414;28;20088;-72
2022/09/30 00:27:38;;;;;;;1.65;0.40;;;;;;;;;;5117230;28;20051;-72
2022/09/30 00:30:04;;;;;;;1.05;0.73;;;;;;;;;;5117212;28;20586;-72
2022/09/30 00:32:30;;;;;;;2.58;0.35;;;;;;;;;;5118126;28;20089;-72
2022/09/30 00:34:56;;;;;;;1.13;0.30;;;;;;;;;;5117145;28;20385;-72
2022/09/30 00:37:23;;;;;;;1.35;0.40;;;;;;;;;;5117518;28;20056;-73
2022/09/30 00:39:49;;;;;;;1.45;0.32;;;;;;;;;;5117331;28;20035;-72
2022/09/30 00:42:18;;;;;;;0.40;0.30;;;;;;;;;;5118127;28;20063;-72
2022/09/30 00:44:46;;;;;;;1.27;0.40;;;;;;;;;;5117180;28;20040;-72
2022/09/30 00:47:31;;;;;;;1.23;0.40;;;;;;;;;;5117828;28;20047;-73
2022/09/30 00:49:59;;;;;;;0.85;0.47;;;;;;;;;;5116760;28;20039;-72
2022/09/30 00:52:25;;;;;;;2.25;0.50;;;;;;;;;;5117127;28;20070;-72
2022/09/30 00:54:52;;;;;;;0.98;0.55;;;;;;;;;;5116834;28;20439;-73
2022/09/30 00:57:18;;;;;;;0.30;0.30;;;;;;;;;;5116999;28;20130;-72
2022/09/30 00:59:46;;;;;;;0.50;0.40;;;;;;;;;;5116964;28;20043;-73
2022/09/30 01:02:13;;;;;;;1.30;0.35;;;;;;;;;;5117406;28;20067;-72
2022/09/30 01:04:40;;;;;;;0.75;0.40;;;;;;;;;;5116914;28;20044;-72
2022/09/30 01:07:07;;;;;;;4.38;0.43;;;;;;;;;;5116702;28;20028;-72
2022/09/30 01:09:35;;;;;;;0.40;0.35;;;;;;;;;;5116808;28;20054;-72
2022/09/30 01:12:09;;;;;;;0.30;0.22;;;;;;;;;;5117069;28;20044;-72
2022/09/30 01:14:36;;;;;;;0.88;0.40;;;;;;;;;;5116561;28;20070;-73
2022/09/30 01:17:10;;;;;;;0.70;0.30;;;;;;;;;;5116299;28;20157;-72
2022/09/30 01:19:50;;;;;;;1.85;0.38;;;;;;;;;;5116408;28;20050;-72
2022/09/30 01:22:25;;;;;;;0.50;0.50;;;;;;;;;;5116091;28;20041;-72
2022/09/30 01:24:54;;;;;;;3.25;0.47;;;;;;;;;;5116381;28;20043;-73
2022/09/30 01:27:28;;;;;;;0.43;0.43;;;;;;;;;;5116114;28;20055;-73
2022/09/30 01:29:54;;;;;;;1.50;0.50;;;;;;;;;;5114207;28;20096;-73
2022/09/30 01:32:20;;;;;;;0.50;0.40;;;;;;;;;;5116314;28;20120;-72
2022/09/30 01:34:54;;;;;;;2.17;0.50;;;;;;;;;;5115657;28;20498;-72
2022/09/30 01:37:24;;;;;;;1.17;0.40;;;;;;;;;;5116262;28;20044;-72
2022/09/30 01:39:56;;;;;;;1.48;0.47;;;;;;;;;;5115532;28;20402;-73
2022/09/30 01:42:25;;;;;;;0.70;0.45;;;;;;;;;;5115619;28;20122;-72
2022/09/30 01:45:13;;;;;;;1.60;0.40;;;;;;;;;;5116066;28;20028;-73
2022/09/30 01:47:49;;;;;;;0.55;0.50;;;;;;;;;;5115764;28;20058;-72
2022/09/30 01:50:21;;;;;;;2.17;0.50;;;;;;;;;;5115979;28;20039;-72
2022/09/30 01:52:52;;;;;;;1.13;0.40;;;;;;;;;;5116060;28;20042;-73
2022/09/30 01:55:18;;;;;;;2.97;0.43;;;;;;;;;;5115664;28;20039;-73
2022/09/30 01:57:47;;;;;;;0.95;0.40;;;;;;;;;;5115374;28;20087;-73
2022/09/30 02:00:14;;;;;;;1.33;0.50;;;;;;;;;;5116080;28;20537;-72
2022/09/30 02:02:47;;;;;;;0.88;0.40;;;;;;;;;;5115498;28;20114;-72
2022/09/30 02:05:17;;;;;;;1.30;0.40;;;;;;;;;;5115156;28;20536;-72
2022/09/30 02:07:50;;;;;;;1.33;0.50;;;;;;;;;;5115277;28;20494;-72
2022/09/30 02:10:18;;;;;;;1.17;0.50;;;;;;;;;;5115326;28;20130;-73
2022/09/30 02:12:49;;;;;;;1.08;0.43;;;;;;;;;;5114983;28;20047;-72
2022/09/30 02:15:19;;;;;;;1.83;0.50;;;;;;;;;;5114917;28;20524;-72
2022/09/30 02:18:03;;;;;;;2.55;0.50;;;;;;;;;;5114927;28;20494;-72
2022/09/30 02:20:32;;;;;;;0.80;0.40;;;;;;;;;;5114962;28;20512;-72
2022/09/30 02:23:07;;;;;;;3.70;0.77;;;;;;;;;;5115201;28;20048;-72
2022/09/30 02:25:37;;;;;;;1.50;0.50;;;;;;;;;;5114860;28;20104;-72
2022/09/30 02:28:06;;;;;;;2.42;0.60;;;;;;;;;;5115111;28;20051;-72
2022/09/30 02:30:36;;;;;;;1.10;0.45;;;;;;;;;;5115681;28;20115;-72
2022/09/30 02:33:04;;;;;;;5.20;0.87;;;;;;;;;;5115471;28;20047;-72
2022/09/30 02:35:34;;;;;;;2.75;0.50;;;;;;;;;;5115443;28;20047;-73
2022/09/30 02:38:26;;;;;;;1.58;0.70;;;;;;;;;;5115612;28;20071;-72
2022/09/30 02:40:57;;;;;;;3.28;1.35;;;;;;;;;;5111581;28;20036;-72
2022/09/30 02:43:26;;;;;;;3.47;1.00;;;;;;;;;;5115155;28;20043;-72
2022/09/30 02:46:02;;;;;;;3.67;0.60;;;;;;;;;;5115157;28;20039;-72
2022/09/30 02:48:31;;;;;;;3.75;0.85;;;;;;;;;;5115338;28;20506;-72
2022/09/30 02:51:10;;;;;;;2.55;1.00;;;;;;;;;;5115089;28;20668;-74
2022/09/30 02:53:59;;;;;;;2.38;0.55;;;;;;;;;;5115347;28;20086;-73
2022/09/30 02:56:39;;;;;;;1.42;0.80;;;;;;;;;;5114619;28;20036;-74
2022/09/30 02:59:05;;;;;;;3.90;1.10;;;;;;;;;;5114746;28;20054;-74
2022/09/30 03:01:32;;;;;;;2.72;0.80;;;;;;;;;;5114777;28;20393;-74
2022/09/30 03:04:00;;;;;;;2.38;0.88;;;;;;;;;;5115254;28;20143;-74
2022/09/30 03:06:26;;;;;;;4.82;0.95;;;;;;;;;;5114701;28;20047;-74
2022/09/30 03:08:53;;;;;;;3.92;0.88;;;;;;;;;;5114784;28;20115;-74
2022/09/30 03:11:20;;;;;;;3.28;0.90;;;;;;;;;;5114715;28;20140;-73
2022/09/30 03:13:52;;;;;;;3.03;1.08;;;;;;;;;;5115316;28;20040;-74
2022/09/30 03:16:21;;;;;;;3.38;0.98;;;;;;;;;;5114984;28;20172;-74
2022/09/30 03:18:56;;;;;;;3.03;0.95;;;;;;;;;;5114713;28;20050;-74
2022/09/30 03:21:43;;;;;;;1.85;0.70;;;;;;;;;;5115029;28;20055;-74
2022/09/30 03:24:20;;;;;;;3.53;0.80;;;;;;;;;;5114822;28;20044;-74
2022/09/30 03:26:53;;;;;;;1.00;0.57;;;;;;;;;;5116698;28;20105;-74
2022/09/30 03:29:25;;;;;;;0.93;0.77;;;;;;;;;;5117990;28;20109;-74
2022/09/30 03:31:54;;;;;;;1.63;0.80;;;;;;;;;;5119005;28;20474;-74
2022/09/30 03:34:27;;;;;;;2.45;0.80;;;;;;;;;;5118136;28;20040;-74
2022/09/30 03:37:02;;;;;;;2.00;0.95;;;;;;;;;;5118295;28;20056;-74
2022/09/30 03:39:34;;;;;;;2.10;0.90;;;;;;;;;;5118233;28;20032;-74
2022/09/30 03:42:07;;;;;;;2.10;0.82;;;;;;;;;;5118509;28;20114;-73
2022/09/30 03:44:39;;;;;;;2.50;0.95;;;;;;;;;;5116717;28;20040;-74
2022/09/30 03:47:16;;;;;;;3.58;0.98;;;;;;;;;;5118099;28;20048;-74
2022/09/30 03:49:45;;;;;;;1.58;0.95;;;;;;;;;;5117428;28;20054;-74
2022/09/30 03:52:12;;;;;;;3.35;1.25;;;;;;;;;;5118370;28;20047;-74
2022/09/30 03:54:47;;;;;;;4.90;0.80;;;;;;;;;;5117983;28;20085;-73
2022/09/30 03:57:14;;;;;;;2.47;1.02;;;;;;;;;;5117899;28;20035;-74
2022/09/30 03:59:40;;;;;;;1.83;1.08;;;;;;;;;;5117686;28;20042;-74
2022/09/30 04:02:08;;;;;;;1.63;1.15;;;;;;;;;;5117808;28;20039;-74
2022/09/30 04:04:35;;;;;;;5.45;0.82;;;;;;;;;;5117744;28;20051;-74
2022/09/30 04:07:01;;;;;;;1.77;0.90;;;;;;;;;;5117383;28;20109;-74
2022/09/30 04:09:27;;;;;;;2.78;0.90;;;;;;;;;;5115869;28;20124;-74
2022/09/30 04:11:53;;;;;;;13.95;8.73;;;;;;;;;;5096876;28;20451;-75
2022/09/30 04:14:19;;;;;;;3.97;1.90;;;;;;;;;;5096985;28;20036;-75
2022/09/30 04:16:45;;;;;;;2.88;1.73;;;;;;;;;;5097277;28;20040;-74
2022/09/30 04:19:11;;;;;;;3.05;0.90;;;;;;;;;;5096685;28;20036;-74
2022/09/30 04:21:38;;;;;;;3.67;2.17;;;;;;;;;;5096739;28;20051;-74
2022/09/30 04:24:04;;;;;;;1.63;0.98;;;;;;;;;;5097216;28;20048;-74
2022/09/30 04:26:30;;;;;;;1.83;0.98;;;;;;;;;;5096813;28;20044;-75
2022/09/30 04:28:59;;;;;;;3.53;0.90;;;;;;;;;;5096874;28;20045;-74
2022/09/30 04:31:25;;;;;;;2.88;0.90;;;;;;;;;;5097444;28;20039;-75
2022/09/30 04:33:51;;;;;;;1.92;1.05;;;;;;;;;;5097176;28;20040;-74
2022/09/30 04:36:18;;;;;;;2.03;0.93;;;;;;;;;;5096856;28;20039;-74
2022/09/30 04:38:44;;;;;;;2.92;0.98;;;;;;;;;;5096090;28;20047;-74
2022/09/30 04:41:17;;;;;;;3.30;1.17;;;;;;;;;;5096912;28;20032;-74
2022/09/30 04:43:45;;;;;;;5.32;2.17;;;;;;;;;;5096374;28;20101;-74
2022/09/30 04:46:21;;;;;;;2.33;1.23;;;;;;;;;;5096511;28;20058;-74
2022/09/30 04:48:48;;;;;;;1.40;0.93;;;;;;;;;;5095912;28;20127;-74
2022/09/30 04:51:15;;;;;;;2.47;1.30;;;;;;;;;;5096358;28;20036;-74
2022/09/30 04:53:41;;;;;;;7.05;1.40;;;;;;;;;;5096943;28;20040;-74
2022/09/30 04:56:08;;;;;;;3.17;1.30;;;;;;;;;;5096368;28;20047;-74
2022/09/30 04:58:34;;;;;;;2.08;1.10;;;;;;;;;;5096428;28;20046;-74
2022/09/30 05:01:03;;;;;;;3.95;1.30;;;;;;;;;;5096713;28;20064;-74
2022/09/30 05:03:29;;;;;;;3.40;1.27;;;;;;;;;;5096682;28;20122;-74
2022/09/30 05:05:56;;;;;;;0.85;0.70;;;;;;;;;;5096482;28;20066;-74
2022/09/30 05:08:22;;;;;;;2.67;0.80;;;;;;;;;;5096072;28;20048;-74
2022/09/30 05:10:58;;;;;;;6.82;0.90;;;;;;;;;;5096669;28;20032;-74
2022/09/30 05:13:30;;;;;;;1.83;0.80;;;;;;;;;;5096399;28;20055;-74
2022/09/30 05:15:56;;;;;;;6.43;3.10;;;;;;;;;;5095975;28;20068;-74
2022/09/30 05:18:25;;;;;;;5.18;1.88;;;;;;;;;;5096191;28;20123;-74
2022/09/30 05:20:52;;;;;;;1.13;0.98;;;;;;;;;;5096396;28;20028;-74
2022/09/30 05:23:19;;;;;;;9.68;5.80;;;;;;;;;;5096165;28;20142;-74
2022/09/30 05:25:45;;;;;;;6.95;3.88;;;;;;;;;;5095694;28;20430;-74
2022/09/30 05:28:11;;;;;;;4.88;2.00;;;;;;;;;;5095115;28;20040;-74
2022/09/30 05:30:38;;;;;;;3.28;1.23;;;;;;;;;;5095871;28;20048;-74
2022/09/30 05:33:05;;;;;;;21.13;11.82;;;;;;;;;;5103036;28;20095;-74
2022/09/30 05:35:32;;;;;;;4.55;1.00;;;;;;;;;;5115748;28;20052;-74
2022/09/30 05:37:59;;;;;;;4.53;1.00;;;;;;;;;;5115952;28;20044;-74
2022/09/30 05:40:25;;;;;;;5.68;2.17;;;;;;;;;;5115593;28;20100;-74
2022/09/30 05:42:51;;;;;;;2.67;1.20;;;;;;;;;;5115914;28;20070;-74
2022/09/30 05:45:18;;;;;;;3.80;1.38;;;;;;;;;;5116121;28;20066;-72
2022/09/30 05:47:50;;;;;;;5.15;2.50;;;;;;;;;;5115819;28;20153;-73
2022/09/30 05:50:16;;;;;;;6.63;2.67;;;;;;;;;;5114487;28;20067;-74
2022/09/30 05:52:43;;;;;;;1.40;0.95;;;;;;;;;;5115748;28;20049;-74
2022/09/30 05:55:09;;;;;;;2.97;0.90;;;;;;;;;;5115653;28;20156;-74
2022/09/30 05:57:35;;;;;;;3.33;1.73;;;;;;;;;;5113341;28;20076;-74
2022/09/30 06:00:01;;;;;;;2.08;1.00;;;;;;;;;;5114049;28;20039;-74
2022/09/30 06:02:27;;;;;;;11.68;5.05;;;;;;;;;;5114820;28;20043;-74
2022/09/30 06:04:53;;;;;;;2.80;1.40;;;;;;;;;;5115479;28;20039;-74
2022/09/30 06:07:20;;;;;;;9.32;5.60;;;;;;;;;;5115268;28;20035;-74
2022/09/30 06:09:46;;;;;;;2.03;1.17;;;;;;;;;;5114615;28;20047;-74
2022/09/30 06:12:12;;;;;;;4.22;1.15;;;;;;;;;;5113987;28;20490;-74
2022/09/30 06:14:38;;;;;;;2.65;1.00;;;;;;;;;;5114785;28;20076;-74
2022/09/30 06:17:05;;;;;;;4.80;1.23;;;;;;;;;;5114682;28;20047;-74
2022/09/30 06:19:31;;;;;;;1.60;1.13;;;;;;;;;;5115204;28;20035;-75
2022/09/30 06:21:58;;;;;;;4.32;1.00;;;;;;;;;;5115530;28;20047;-76
2022/09/30 06:24:24;;;;;;;6.85;3.33;;;;;;;;;;5113014;28;20538;-76
2022/09/30 06:26:50;;;;;;;3.88;1.65;;;;;;;;;;5114495;28;20498;-76
2022/09/30 06:29:18;;;;;;;3.28;1.60;;;;;;;;;;5114742;28;20085;-76
2022/09/30 06:31:44;;;;;;;2.35;1.45;;;;;;;;;;5114852;28;20417;-76
2022/09/30 06:34:10;;;;;;;4.50;1.70;;;;;;;;;;5115326;28;20565;-76
2022/09/30 06:36:36;;;;;;;2.70;2.00;;;;;;;;;;5113587;28;20050;-75
2022/09/30 06:39:03;;;;;;;2.92;2.38;;;;;;;;;;5114798;28;20046;-75
2022/09/30 06:41:30;;;;;;;2.45;1.20;;;;;;;;;;5114692;28;20032;-75
2022/09/30 06:43:56;;;;;;;2.33;0.80;;;;;;;;;;5113511;28;20040;-76
2022/09/30 06:46:23;;;;;;;4.70;2.53;;;;;;;;;;5114307;28;20100;-76
2022/09/30 06:48:58;;;;;;;2.85;2.13;;;;;;;;;;5113785;28;20048;-76
2022/09/30 06:51:25;;;;;;;2.03;1.00;;;;;;;;;;5113477;28;20058;-76
2022/09/30 06:53:52;;;;;;;2.53;1.08;;;;;;;;;;5115006;28;20044;-76
2022/09/30 06:56:18;;;;;;;2.17;1.20;;;;;;;;;;5114018;28;20047;-76
2022/09/30 06:58:45;;;;;;;2.45;1.38;;;;;;;;;;5114078;28;20047;-76
2022/09/30 07:01:14;;;;;;;2.03;1.25;;;;;;;;;;5117444;28;20446;-75
2022/09/30 07:03:41;;;;;;;7.55;2.47;;;;;;;;;;5117891;28;20046;-74
2022/09/30 07:06:08;;;;;;;4.72;2.20;;;;;;;;;;5117848;28;20077;-74
2022/09/30 07:08:35;;;;;;;2.28;1.35;;;;;;;;;;5118487;28;20047;-74
2022/09/30 07:11:10;;;;;;;17.08;11.20;;;;;;;;;;5117749;28;20359;-74
2022/09/30 07:13:37;;;;;;;5.82;3.90;;;;;;;;;;5118816;28;20546;-74
2022/09/30 07:16:03;;;;;;;12.05;8.00;;;;;;;;;;5118140;28;20558;-74
2022/09/30 07:18:29;;;;;;;5.47;4.90;;;;;;;;;;5117146;28;20379;-74
2022/09/30 07:20:56;;;;;;;4.18;2.50;;;;;;;;;;5118643;28;20036;-74
2022/09/30 07:23:24;;;;;;;2.17;1.50;;;;;;;;;;5118836;28;20054;-74
2022/09/30 07:25:51;;;;;;;4.95;1.40;;;;;;;;;;5118301;28;20039;-73
2022/09/30 07:28:17;;;;;;;6.38;2.45;;;;;;;;;;5117921;27;20048;-73
2022/09/30 07:30:44;;;;;;;2.72;1.75;;;;;;;;;;5118490;28;20043;-74
2022/09/30 07:33:15;;;;;;;3.03;1.30;;;;;;;;;;5118688;28;20042;-73
2022/09/30 07:35:49;;;;;;;7.72;4.90;;;;;;;;;;5118648;28;20042;-74
2022/09/30 07:38:16;;;;;;;14.48;6.97;;;;;;;;;;5118471;28;20130;-73
2022/09/30 07:40:42;;;;;;;9.13;5.65;;;;;;;;;;5117681;28;20385;-74
2022/09/30 07:43:08;;;;;;;11.45;6.50;;;;;;;;;;5111792;28;20808;-76
2022/09/30 07:45:36;;;;;;;3.17;1.67;;;;;;;;;;5107062;28;20032;-75
2022/09/30 07:48:06;;;;;;;1.85;1.15;;;;;;;;;;5117182;28;20142;-75
2022/09/30 07:50:32;;;;;;;8.87;6.50;;;;;;;;;;5117539;28;20039;-76
2022/09/30 07:52:58;;;;;;;9.48;5.22;;;;;;;;;;5117713;28;20039;-76
2022/09/30 07:55:24;;;;;;;6.25;1.90;;;;;;;;;;5113362;28;20105;-76
2022/09/30 07:57:51;;;;;;;3.55;1.92;;;;;;;;;;5099756;28;20067;-76
2022/09/30 08:00:17;;;;;;;5.47;1.60;;;;;;;;;;5114556;28;20039;-76
2022/09/30 08:02:43;;;;;;;5.68;2.95;;;;;;;;;;5117380;28;20502;-76
2022/09/30 08:05:09;;;;;;;3.65;1.77;;;;;;;;;;5111749;28;20096;-75
2022/09/30 08:07:35;;;;;;;3.10;1.42;;;;;;;;;;5116346;28;20406;-76
2022/09/30 08:10:01;;;;;;;4.82;1.30;;;;;;;;;;5098135;28;20039;-76
2022/09/30 08:12:27;;;;;;;1.90;1.13;;;;;;;;;;5103550;28;20028;-75
2022/09/30 08:14:53;;;;;;;1.23;1.08;;;;;;;;;;5102765;28;20040;-75
2022/09/30 08:17:19;;;;;;;1.35;1.20;;;;;;;;;;5096414;28;20182;-74
2022/09/30 08:19:45;;;;;;;3.95;1.60;;;;;;;;;;5106961;28;20051;-76
2022/09/30 08:22:13;;;;;;;0.90;0.73;;;;;;;;;;5095522;28;20071;-75
2022/09/30 08:24:39;;;;;;;3.15;0.95;;;;;;;;;;5103124;28;20047;-76
2022/09/30 08:27:05;;;;;;;4.15;0.80;;;;;;;;;;5116178;28;20043;-75
2022/09/30 08:29:32;;;;;;;1.52;1.15;;;;;;;;;;5117064;28;20051;-75
2022/09/30 08:31:58;;;;;;;2.47;1.00;;;;;;;;;;5114808;28;20438;-76
2022/09/30 08:34:24;;;;;;;3.38;1.65;;;;;;;;;;5116812;28;20035;-76
2022/09/30 08:36:50;;;;;;;2.13;1.05;;;;;;;;;;5116534;28;20451;-76
2022/09/30 08:39:16;;;;;;;4.00;0.85;;;;;;;;;;5099565;28;20055;-76
2022/09/30 08:41:51;;;;;;;1.40;0.70;;;;;;;;;;5100485;28;20028;-76
2022/09/30 08:44:17;;;;;;;2.65;1.08;;;;;;;;;;5094581;28;20036;-75
2022/09/30 08:46:46;;;;;;;2.33;0.80;;;;;;;;;;5095632;28;20043;-76
2022/09/30 08:49:19;;;;;;;2.45;0.95;;;;;;;;;;5099510;28;20055;-76
2022/09/30 08:51:46;;;;;;;2.83;1.60;;;;;;;;;;5099972;28;20127;-76
2022/09/30 08:54:17;;;;;;;2.35;1.10;;;;;;;;;;5105846;28;20058;-76
2022/09/30 08:56:44;;;;;;;1.88;0.98;;;;;;;;;;5100104;28;20040;-76
2022/09/30 08:59:22;;;;;;;4.13;1.35;;;;;;;;;;5113621;28;20040;-76
2022/09/30 09:01:51;;;;;;;2.65;0.88;;;;;;;;;;5095830;28;20040;-77
2022/09/30 09:04:18;;;;;;;2.55;1.52;;;;;;;;;;5096350;28;20510;-76
2022/09/30 09:06:58;;;;;;;3.65;1.30;;;;;;;;;;5094903;28;20036;-76
2022/09/30 09:09:31;;;;;;;1.15;0.90;;;;;;;;;;5115864;28;20055;-77
2022/09/30 09:12:07;;;;;;;3.20;0.80;;;;;;;;;;5116843;28;20047;-76
2022/09/30 09:14:39;;;;;;;3.13;1.50;;;;;;;;;;5108531;28;20038;-76
2022/09/30 09:17:16;;;;;;;1.38;0.90;;;;;;;;;;5116691;28;20065;-76
2022/09/30 09:19:47;;;;;;;3.05;1.15;;;;;;;;;;5098481;28;20096;-76
2022/09/30 09:22:14;;;;;;;2.70;0.90;;;;;;;;;;5114409;28;20062;-76
2022/09/30 09:24:46;;;;;;;1.48;0.85;;;;;;;;;;5102821;28;20035;-76
2022/09/30 09:27:17;;;;;;;2.05;0.70;;;;;;;;;;5105510;28;20043;-74
2022/09/30 09:30:22;;;;;;;2.60;1.08;;;;;;;;;;5115179;28;20126;-74
2022/09/30 09:32:52;;;;;;;2.25;1.05;;;;;;;;;;5035341;28;20042;-76
2022/09/30 09:35:33;;;;;;;1.17;0.70;;;;;;;;;;5034521;28;20175;-76
2022/09/30 09:41:03;;;;;;;1.65;0.90;;;;;;;;;;5115071;28;20046;-76
2022/09/30 09:43:42;;;;;;;1.77;0.88;;;;;;;;;;5112490;28;20035;-76
2022/09/30 09:46:11;;;;;;;1.15;0.85;;;;;;;;;;5116180;28;20043;-76
2022/09/30 09:48:38;;;;;;;1.00;0.70;;;;;;;;;;5113955;28;20040;-76
2022/09/30 09:51:25;;;;;;;1.50;0.68;;;;;;;;;;5105211;28;20069;-76
2022/09/30 09:53:56;;;;;;;2.00;0.88;;;;;;;;;;5113831;28;20058;-76
2022/09/30 09:56:26;;;;;;;4.32;1.73;;;;;;;;;;5115219;28;20047;-76
2022/09/30 09:59:08;;;;;;;6.85;4.50;;;;;;;;;;5109061;28;20047;-76
2022/09/30 10:01:35;;;;;;;1.05;0.65;;;;;;;;;;5102734;28;20196;-75
2022/09/30 10:04:17;;;;;;;1.58;0.90;;;;;;;;;;5111770;28;20557;-74
2022/09/30 10:07:00;;;;;;;1.35;0.90;;;;;;;;;;5115050;28;20027;-74
2022/09/30 10:09:29;;;;;;;1.25;0.70;;;;;;;;;;5101564;28;20047;-75
2022/09/30 10:12:07;;;;;;;1.95;0.50;;;;;;;;;;5094263;28;20039;-75
2022/09/30 10:14:35;;;;;;;6.03;1.98;;;;;;;;;;5106633;28;20532;-76
2022/09/30 10:17:02;;;;;;;2.05;0.95;;;;;;;;;;5112870;28;20028;-73
2022/09/30 10:19:29;;;;;;;5.07;0.90;;;;;;;;;;5104293;28;20048;-73
2022/09/30 10:22:08;;;;;;;1.95;0.80;;;;;;;;;;5105881;28;20058;-74
2022/09/30 10:24:35;;;;;;;3.50;1.30;;;;;;;;;;5114386;28;20043;-74
2022/09/30 10:27:01;;;;;;;2.60;0.90;;;;;;;;;;5109781;28;20075;-74
2022/09/30 10:29:32;;;;;;;1.52;0.70;;;;;;;;;;5112172;28;20039;-73
2022/09/30 10:31:59;;;;;;;4.30;1.10;;;;;;;;;;5103165;28;20051;-73
2022/09/30 10:34:33;;;;;;;3.35;0.73;;;;;;;;;;5113336;28;20367;-73
2022/09/30 10:37:08;;;;;;;2.10;0.60;;;;;;;;;;5113695;28;20040;-73
2022/09/30 10:39:42;;;;;;;0.50;0.40;;;;;;;;;;5114154;28;20043;-74
2022/09/30 10:42:15;;;;;;;5.40;3.97;;;;;;;;;;5114183;28;20063;-73
2022/09/30 10:44:45;;;;;;;11.80;8.70;;;;;;;;;;5113510;28;20032;-73
2022/09/30 10:47:18;;;;;;;2.50;0.88;;;;;;;;;;5113368;28;20036;-73
2022/09/30 10:49:47;;;;;;;1.35;0.85;;;;;;;;;;5112533;28;20259;-75
2022/09/30 10:52:18;;;;;;;4.63;2.38;;;;;;;;;;5100969;28;20040;-75
2022/09/30 10:54:52;;;;;;;4.07;2.38;;;;;;;;;;5101952;28;20031;-75
2022/09/30 10:57:36;;;;;;;1.05;0.75;;;;;;;;;;5114280;28;20035;-75
2022/09/30 11:00:14;;;;;;;3.75;1.58;;;;;;;;;;5112519;28;20487;-76
2022/09/30 11:02:53;;;;;;;5.53;2.58;;;;;;;;;;5112391;28;20043;-76
2022/09/30 11:05:22;;;;;;;6.57;3.47;;;;;;;;;;5114260;28;20039;-76
2022/09/30 11:07:53;;;;;;;2.40;0.80;;;;;;;;;;5112566;28;20039;-76
2022/09/30 11:10:25;;;;;;;0.60;0.60;;;;;;;;;;5113490;28;20040;-75
2022/09/30 11:13:04;;;;;;;7.55;3.35;;;;;;;;;;5113138;28;20039;-76
2022/09/30 11:15:33;;;;;;;1.67;0.80;;;;;;;;;;5112450;28;20032;-75
2022/09/30 11:18:19;;;;;;;1.05;0.60;;;;;;;;;;5114343;28;20516;-76
2022/09/30 11:20:50;;;;;;;1.42;1.08;;;;;;;;;;5112759;28;20502;-76
2022/09/30 11:23:27;;;;;;;2.63;1.20;;;;;;;;;;5114576;28;20043;-76
2022/09/30 11:26:05;;;;;;;4.82;1.52;;;;;;;;;;5114486;28;20122;-76
2022/09/30 11:28:44;;;;;;;3.92;0.77;;;;;;;;;;5114322;28;20047;-75
2022/09/30 11:31:29;;;;;;;5.82;3.28;;;;;;;;;;5114184;28;20424;-75
2022/09/30 11:34:07;;;;;;;2.15;0.80;;;;;;;;;;5114783;28;20142;-76
2022/09/30 11:36:42;;;;;;;4.10;2.40;;;;;;;;;;5112112;28;20123;-77
2022/09/30 11:39:27;;;;;;;2.17;0.73;;;;;;;;;;5113427;28;20036;-76
2022/09/30 11:42:16;;;;;;;1.42;0.70;;;;;;;;;;5093288;28;20140;-77
2022/09/30 11:44:44;;;;;;;2.67;0.80;;;;;;;;;;5103617;28;20160;-75
2022/09/30 11:47:10;;;;;;;1.35;0.73;;;;;;;;;;5114618;28;20051;-76
2022/09/30 11:49:54;;;;;;;1.48;1.33;;;;;;;;;;5115984;28;20059;-74
2022/09/30 11:52:20;;;;;;;1.92;0.60;;;;;;;;;;5117261;28;20040;-74
2022/09/30 11:55:09;;;;;;;2.38;0.80;;;;;;;;;;5116304;28;20050;-74
2022/09/30 11:57:48;;;;;;;1.00;0.68;;;;;;;;;;5105594;28;20047;-77
2022/09/30 12:00:16;;;;;;;3.65;1.20;;;;;;;;;;5117521;28;20112;-77
2022/09/30 12:02:43;;;;;;;1.67;1.00;;;;;;;;;;5116555;28;20046;-78
2022/09/30 12:05:28;;;;;;;1.10;0.88;;;;;;;;;;5116392;28;20032;-76
2022/09/30 12:07:59;;;;;;;2.58;1.75;;;;;;;;;;5115287;28;20066;-76
2022/09/30 12:10:28;;;;;;;0.63;0.63;;;;;;;;;;5116880;28;20110;-77
2022/09/30 12:12:58;;;;;;;2.15;1.05;;;;;;;;;;5116665;28;20043;-76
2022/09/30 12:15:26;;;;;;;2.00;0.75;;;;;;;;;;5116076;28;20047;-74
2022/09/30 12:17:57;;;;;;;4.03;2.90;;;;;;;;;;5116513;28;20578;-75
2022/09/30 12:20:24;;;;;;;2.40;1.73;;;;;;;;;;5116057;28;20074;-76
2022/09/30 12:22:52;;;;;;;3.30;2.08;;;;;;;;;;5115740;28;20067;-77
2022/09/30 12:25:20;;;;;;;6.63;2.97;;;;;;;;;;5097181;28;20035;-77
2022/09/30 12:27:50;;;;;;;4.38;2.05;;;;;;;;;;5109850;28;20044;-79
2022/09/30 12:30:19;;;;;;;4.55;1.88;;;;;;;;;;5114981;28;20085;-76
2022/09/30 12:32:55;;;;;;;4.55;2.17;;;;;;;;;;5114648;28;20039;-77
2022/09/30 12:35:23;;;;;;;7.53;5.07;;;;;;;;;;5116976;27;20032;-76
2022/09/30 12:38:07;;;;;;;1.70;0.90;;;;;;;;;;5114710;28;20079;-76
2022/09/30 12:40:38;;;;;;;1.95;1.05;;;;;;;;;;5116899;28;20047;-76
2022/09/30 12:43:04;;;;;;;;;;;;;;;;;;5115989;28;20080;-77
2022/09/30 12:45:36;;;;;;;1.10;0.73;;;;;;;;;;5116058;28;19908;-77
2022/09/30 12:48:05;;;;;;;2.58;0.95;;;;;;;;;;5116421;28;20173;-77
2022/09/30 12:50:35;;;;;;;4.55;2.40;;;;;;;;;;5114953;28;20035;-78
2022/09/30 12:53:09;;;;;;;1.52;0.90;;;;;;;;;;5115483;28;20065;-77
2022/09/30 12:55:40;;;;;;;1.85;0.80;;;;;;;;;;5116186;28;20043;-76
2022/09/30 12:58:16;;;;;;;3.95;1.20;;;;;;;;;;5115487;28;20035;-76
2022/09/30 13:00:57;;;;;;;3.25;0.98;;;;;;;;;;5111926;28;20118;-78
2022/09/30 13:03:25;;;;;;;20.52;16.00;;;;;;;;;;5113703;28;20044;-81
2022/09/30 13:05:52;;;;;;;4.93;3.08;;;;;;;;;;5105452;28;20051;-79
2022/09/30 13:08:19;;;;;;;1.17;1.00;;;;;;;;;;5090402;28;20726;-80
2022/09/30 13:10:47;;;;;;;5.65;4.13;;;;;;;;;;5115461;28;20114;-80
2022/09/30 13:13:24;;;;;;;2.75;1.10;;;;;;;;;;5114087;28;20118;-80
2022/09/30 13:16:03;;;;;;;2.13;1.80;;;;;;;;;;5102919;28;20040;-80
2022/09/30 13:18:29;;;;;;;4.43;3.05;;;;;;;;;;5100264;28;20039;-80
2022/09/30 13:21:05;;;;;;;1.50;0.98;;;;;;;;;;5104053;28;20079;-80
2022/09/30 13:23:41;;;;;;;3.45;1.60;;;;;;;;;;5094484;28;20062;-78
2022/09/30 13:26:30;;;;;;;5.32;3.40;;;;;;;;;;5095138;28;20043;-76
2022/09/30 13:28:59;;;;;;;2.45;0.98;;;;;;;;;;5099547;28;20051;-80
2022/09/30 13:31:27;;;;;;;2.78;1.67;;;;;;;;;;5113715;28;20042;-79
2022/09/30 13:34:05;;;;;;;3.10;1.10;;;;;;;;;;5108008;28;20043;-79
2022/09/30 13:36:31;;;;;;;6.15;2.60;;;;;;;;;;5105128;28;20123;-78
2022/09/30 13:39:16;;;;;;;4.22;2.00;;;;;;;;;;5104771;28;20081;-79
2022/09/30 13:41:43;;;;;;;3.78;1.42;;;;;;;;;;5110034;28;20127;-79
2022/09/30 13:44:16;;;;;;;2.63;1.40;;;;;;;;;;5114733;28;20419;-78
2022/09/30 13:46:51;;;;;;;5.45;2.45;;;;;;;;;;5113529;28;20046;-79
2022/09/30 13:49:35;;;;;;;2.05;1.00;;;;;;;;;;5103376;28;20097;-78
2022/09/30 13:52:02;;;;;;;4.55;1.55;;;;;;;;;;5092965;28;20119;-79
2022/09/30 13:54:34;;;;;;;10.85;7.57;;;;;;;;;;5108769;28;20031;-79
2022/09/30 13:57:01;;;;;;;24.23;18.85;;;;;;;;;;5110729;28;20042;-77
2022/09/30 13:59:43;;;;;;;4.25;2.65;;;;;;;;;;5114954;28;20093;-78
2022/09/30 14:02:28;;;;;;;4.28;1.90;;;;;;;;;;5105310;28;20078;-78
2022/09/30 14:05:13;;;;;;;6.53;4.50;;;;;;;;;;5105055;28;20070;-77
2022/09/30 14:08:02;;;;;;;17.55;13.35;;;;;;;;;;5112307;28;20502;-77
2022/09/30 14:10:40;;;;;;;1.70;1.27;;;;;;;;;;5113641;28;20040;-79
2022/09/30 14:13:17;;;;;;;4.03;0.90;;;;;;;;;;5105235;28;20039;-79
2022/09/30 14:16:02;;;;;;;3.00;2.30;;;;;;;;;;5114137;28;20061;-79
2022/09/30 14:18:37;;;;;;;2.00;0.82;;;;;;;;;;5105176;28;20465;-78
2022/09/30 14:21:12;;;;;;;1.77;0.50;;;;;;;;;;5099770;28;20035;-78
2022/09/30 14:23:39;;;;;;;3.03;0.68;;;;;;;;;;5094610;28;20047;-78
2022/09/30 14:26:23;;;;;;;3.88;1.13;;;;;;;;;;5113048;28;20089;-79
2022/09/30 14:28:49;;;;;;;1.20;0.70;;;;;;;;;;5109274;28;20134;-79
2022/09/30 14:31:18;;;;;;;1.15;0.70;;;;;;;;;;5112949;28;20081;-79
2022/09/30 14:33:48;;;;;;;2.88;0.73;;;;;;;;;;5109609;28;20465;-79
2022/09/30 14:36:16;;;;;;;2.17;0.80;;;;;;;;;;5108703;28;20089;-78
2022/09/30 14:38:44;;;;;;;1.75;0.75;;;;;;;;;;5111797;28;20046;-79
2022/09/30 14:41:16;;;;;;;2.53;0.77;;;;;;;;;;5114172;28;20122;-79
2022/09/30 14:43:43;;;;;;;1.50;1.15;;;;;;;;;;5112497;28;20102;-79
2022/09/30 14:46:18;;;;;;;0.85;0.70;;;;;;;;;;5098999;28;20112;-77
2022/09/30 14:48:47;;;;;;;1.38;0.50;;;;;;;;;;5112718;28;20105;-78
2022/09/30 14:51:15;;;;;;;3.20;1.30;;;;;;;;;;5105564;28;20116;-79
2022/09/30 14:53:51;;;;;;;3.40;1.30;;;;;;;;;;5113509;28;20496;-79
2022/09/30 14:56:22;;;;;;;1.75;0.70;;;;;;;;;;5112008;28;20036;-78
2022/09/30 14:58:51;;;;;;;3.53;1.42;;;;;;;;;;5110098;28;20048;-76
2022/09/30 15:01:20;;;;;;;1.77;0.85;;;;;;;;;;5111887;28;20040;-79
2022/09/30 15:03:54;;;;;;;3.95;1.40;;;;;;;;;;5114371;28;20032;-77
2022/09/30 15:06:25;;;;;;;2.55;0.68;;;;;;;;;;5109694;28;20145;-78